sensor_id;sensor_type;location;lat;lon;timestamp;pressure;altitude;pressure_sealevel;temperature;humidity
77939;BME280;67136;47.546;21.630;2023-04-19T07:57:04;99853.47;;;21.10;30.17
77939;BME280;67136;47.546;21.630;2023-04-19T08:00:07;99853.78;;;22.74;28.92
77939;BME280;67136;47.546;21.630;2023-04-19T08:03:15;99850.63;;;23.39;27.38
77939;BME280;67136;47.546;21.630;2023-04-19T08:06:18;99843.38;;;24.36;26.06
77939;BME280;67136;47.546;21.630;2023-04-19T08:09:22;99853.03;;;25.08;24.52
77939;BME280;67136;47.546;21.630;2023-04-19T08:12:25;99850.56;;;25.99;24.19
77939;BME280;67136;47.546;21.630;2023-04-19T08:15:41;99847.13;;;25.87;23.61
77939;BME280;67136;47.546;21.630;2023-04-19T08:18:47;99843.81;;;26.76;22.27
77939;BME280;67136;47.546;21.630;2023-04-19T08:21:52;99846.47;;;26.76;22.95
77939;BME280;67136;47.546;21.630;2023-04-19T08:24:55;99835.59;;;26.54;21.54
77939;BME280;67136;47.546;21.630;2023-04-19T08:27:58;99834.13;;;26.91;22.04
77939;BME280;67136;47.546;21.630;2023-04-19T08:31:04;99825.84;;;26.20;21.92
77939;BME280;67136;47.546;21.630;2023-04-19T08:34:08;99842.50;;;27.83;21.19
77939;BME280;67136;47.546;21.630;2023-04-19T08:37:11;99842.03;;;27.48;20.89
77939;BME280;67136;47.546;21.630;2023-04-19T08:40:14;99826.25;;;28.59;19.92
77939;BME280;67136;47.546;21.630;2023-04-19T08:43:18;99829.62;;;27.85;20.21
77939;BME280;67136;47.546;21.630;2023-04-19T08:46:22;99818.59;;;28.78;19.87
77939;BME280;67136;47.546;21.630;2023-04-19T08:49:29;99823.63;;;29.01;18.92
77939;BME280;67136;47.546;21.630;2023-04-19T08:52:34;99821.53;;;29.40;18.77
77939;BME280;67136;47.546;21.630;2023-04-19T08:55:53;99822.06;;;30.95;17.31
77939;BME280;67136;47.546;21.630;2023-04-19T08:59:02;99815.56;;;28.69;18.49
77939;BME280;67136;47.546;21.630;2023-04-19T09:02:22;99821.16;;;27.93;19.52
77939;BME280;67136;47.546;21.630;2023-04-19T09:05:25;99823.72;;;29.48;18.58
77939;BME280;67136;47.546;21.630;2023-04-19T09:08:29;99814.59;;;27.46;20.20
77939;BME280;67136;47.546;21.630;2023-04-19T09:11:36;99807.97;;;27.91;19.46
77939;BME280;67136;47.546;21.630;2023-04-19T09:14:45;99809.59;;;27.00;20.21
77939;BME280;67136;47.546;21.630;2023-04-19T09:18:04;99796.81;;;28.04;19.26
77939;BME280;67136;47.546;21.630;2023-04-19T09:21:08;99804.59;;;26.30;20.76
77939;BME280;67136;47.546;21.630;2023-04-19T09:24:10;99802.78;;;26.19;20.62
77939;BME280;67136;47.546;21.630;2023-04-19T09:27:28;99804.63;;;26.63;20.03
77939;BME280;67136;47.546;21.630;2023-04-19T09:30:31;99803.84;;;28.05;18.90
77939;BME280;67136;47.546;21.630;2023-04-19T09:33:45;99809.28;;;28.59;18.45
77939;BME280;67136;47.546;21.630;2023-04-19T09:36:47;99797.00;;;28.46;18.56
77939;BME280;67136;47.546;21.630;2023-04-19T09:40:24;99796.84;;;27.45;18.83
77939;BME280;67136;47.546;21.630;2023-04-19T09:43:28;99795.06;;;27.34;19.10
77939;BME280;67136;47.546;21.630;2023-04-19T09:46:50;99806.16;;;28.45;18.60
77939;BME280;67136;47.546;21.630;2023-04-19T09:50:08;99799.12;;;27.74;18.81
77939;BME280;67136;47.546;21.630;2023-04-19T09:53:25;99791.66;;;26.88;19.94
77939;BME280;67136;47.546;21.630;2023-04-19T09:56:29;99793.56;;;28.02;18.92
77939;BME280;67136;47.546;21.630;2023-04-19T09:59:33;99794.78;;;27.90;18.60
77939;BME280;67136;47.546;21.630;2023-04-19T10:02:35;99790.69;;;28.31;18.56
77939;BME280;67136;47.546;21.630;2023-04-19T10:05:40;99784.53;;;28.93;18.16
77939;BME280;67136;47.546;21.630;2023-04-19T10:08:42;99792.69;;;29.92;16.75
77939;BME280;67136;47.546;21.630;2023-04-19T10:11:49;99780.66;;;28.79;17.10
77939;BME280;67136;47.546;21.630;2023-04-19T10:14:57;99779.66;;;28.90;16.95
77939;BME280;67136;47.546;21.630;2023-04-19T10:18:00;99779.47;;;27.31;19.69
77939;BME280;67136;47.546;21.630;2023-04-19T10:21:05;99784.00;;;28.38;19.06
77939;BME280;67136;47.546;21.630;2023-04-19T10:24:11;99782.22;;;29.49;18.23
77939;BME280;67136;47.546;21.630;2023-04-19T10:27:14;99779.72;;;31.85;16.54
77939;BME280;67136;47.546;21.630;2023-04-19T10:30:18;99769.06;;;29.10;19.25
77939;BME280;67136;47.546;21.630;2023-04-19T10:33:29;99783.41;;;26.45;20.57
77939;BME280;67136;47.546;21.630;2023-04-19T10:36:36;99777.25;;;27.66;17.87
77939;BME280;67136;47.546;21.630;2023-04-19T10:39:41;99768.38;;;28.62;17.39
77939;BME280;67136;47.546;21.630;2023-04-19T10:46:14;99764.56;;;28.04;18.20
77939;BME280;67136;47.546;21.630;2023-04-19T10:49:17;99766.47;;;30.79;17.06
77939;BME280;67136;47.546;21.630;2023-04-19T10:52:27;99765.78;;;31.52;16.68
77939;BME280;67136;47.546;21.630;2023-04-19T10:55:33;99764.75;;;27.55;20.27
77939;BME280;67136;47.546;21.630;2023-04-19T11:05:27;99750.88;;;25.23;22.19
77939;BME280;67136;47.546;21.630;2023-04-19T11:08:30;99765.75;;;24.96;23.25
77939;BME280;67136;47.546;21.630;2023-04-19T11:11:33;99763.84;;;24.20;24.23
77939;BME280;67136;47.546;21.630;2023-04-19T11:14:42;99770.13;;;23.78;24.69
77939;BME280;67136;47.546;21.630;2023-04-19T11:17:49;99759.66;;;24.66;23.40
77939;BME280;67136;47.546;21.630;2023-04-19T11:21:02;99761.69;;;22.78;25.23
77939;BME280;67136;47.546;21.630;2023-04-19T11:24:07;99758.38;;;22.58;26.38
77939;BME280;67136;47.546;21.630;2023-04-19T11:27:10;99766.44;;;22.38;27.08
77939;BME280;67136;47.546;21.630;2023-04-19T11:30:14;99762.34;;;22.42;27.16
77939;BME280;67136;47.546;21.630;2023-04-19T11:33:19;99759.47;;;25.88;22.69
77939;BME280;67136;47.546;21.630;2023-04-19T11:36:26;99753.53;;;26.86;21.24
77939;BME280;67136;47.546;21.630;2023-04-19T11:39:29;99759.59;;;26.65;21.34
77939;BME280;67136;47.546;21.630;2023-04-19T11:42:32;99753.50;;;27.58;19.60
77939;BME280;67136;47.546;21.630;2023-04-19T11:45:37;99750.28;;;27.99;19.96
77939;BME280;67136;47.546;21.630;2023-04-19T11:48:51;99762.34;;;30.36;17.87
77939;BME280;67136;47.546;21.630;2023-04-19T11:51:59;99763.91;;;27.16;21.17
77939;BME280;67136;47.546;21.630;2023-04-19T11:55:18;99755.22;;;26.59;21.79
77939;BME280;67136;47.546;21.630;2023-04-19T11:58:25;99743.88;;;24.87;23.22
77939;BME280;67136;47.546;21.630;2023-04-19T12:01:28;99742.69;;;23.53;25.40
77939;BME280;67136;47.546;21.630;2023-04-19T12:04:30;99744.22;;;25.60;23.40
77939;BME280;67136;47.546;21.630;2023-04-19T12:07:33;99755.34;;;26.36;22.41
77939;BME280;67136;47.546;21.630;2023-04-19T12:10:36;99748.69;;;24.14;25.46
77939;BME280;67136;47.546;21.630;2023-04-19T12:13:38;99763.59;;;23.92;26.03
77939;BME280;67136;47.546;21.630;2023-04-19T12:16:53;99753.19;;;22.87;27.23
77939;BME280;67136;47.546;21.630;2023-04-19T12:20:05;99758.72;;;22.30;28.35
77939;BME280;67136;47.546;21.630;2023-04-19T12:23:08;99759.69;;;22.04;28.73
77939;BME280;67136;47.546;21.630;2023-04-19T12:26:12;99752.66;;;22.16;28.64
77939;BME280;67136;47.546;21.630;2023-04-19T12:29:15;99750.78;;;22.24;28.92
77939;BME280;67136;47.546;21.630;2023-04-19T12:32:18;99745.03;;;21.89;28.74
77939;BME280;67136;47.546;21.630;2023-04-19T12:35:24;99746.66;;;22.59;27.81
77939;BME280;67136;47.546;21.630;2023-04-19T12:38:26;99733.31;;;24.39;25.27
77939;BME280;67136;47.546;21.630;2023-04-19T12:41:29;99730.84;;;25.88;23.00
77939;BME280;67136;47.546;21.630;2023-04-19T12:44:32;99740.91;;;23.65;25.21
77939;BME280;67136;47.546;21.630;2023-04-19T12:47:35;99742.22;;;22.77;26.72
77939;BME280;67136;47.546;21.630;2023-04-19T12:50:37;99742.75;;;22.30;27.76
77939;BME280;67136;47.546;21.630;2023-04-19T12:53:47;99743.03;;;21.78;28.98
77939;BME280;67136;47.546;21.630;2023-04-19T12:56:50;99750.16;;;21.20;29.72
77939;BME280;67136;47.546;21.630;2023-04-19T12:59:53;99744.44;;;20.84;30.65
77939;BME280;67136;47.546;21.630;2023-04-19T13:02:55;99750.34;;;20.34;30.26
77939;BME280;67136;47.546;21.630;2023-04-19T13:05:58;99736.63;;;19.63;30.51
77939;BME280;67136;47.546;21.630;2023-04-19T13:09:01;99739.97;;;19.85;30.20
77939;BME280;67136;47.546;21.630;2023-04-19T13:12:15;99744.31;;;19.45;29.97
77939;BME280;67136;47.546;21.630;2023-04-19T13:15:17;99742.78;;;21.22;27.33
77939;BME280;67136;47.546;21.630;2023-04-19T13:18:20;99747.72;;;20.79;27.49
77939;BME280;67136;47.546;21.630;2023-04-19T13:21:23;99739.50;;;20.35;28.08
77939;BME280;67136;47.546;21.630;2023-04-19T13:24:26;99728.78;;;19.96;29.27
77939;BME280;67136;47.546;21.630;2023-04-19T13:27:28;99738.62;;;20.09;29.45
77939;BME280;67136;47.546;21.630;2023-04-19T13:30:31;99734.50;;;20.00;29.67
77939;BME280;67136;47.546;21.630;2023-04-19T13:33:33;99739.75;;;20.99;28.69
77939;BME280;67136;47.546;21.630;2023-04-19T13:36:36;99738.97;;;19.93;30.54
77939;BME280;67136;47.546;21.630;2023-04-19T13:39:41;99745.72;;;19.89;31.48
77939;BME280;67136;47.546;21.630;2023-04-19T13:42:44;99737.81;;;19.54;31.73
77939;BME280;67136;47.546;21.630;2023-04-19T13:45:46;99741.66;;;19.45;32.51
77939;BME280;67136;47.546;21.630;2023-04-19T13:48:49;99747.06;;;18.97;33.16
77939;BME280;67136;47.546;21.630;2023-04-19T13:51:52;99746.41;;;18.67;33.28
77939;BME280;67136;47.546;21.630;2023-04-19T13:54:54;99743.06;;;18.58;33.21
77939;BME280;67136;47.546;21.630;2023-04-19T13:57:57;99743.78;;;18.46;33.24
77939;BME280;67136;47.546;21.630;2023-04-19T14:00:59;99743.34;;;18.28;33.53
77939;BME280;67136;47.546;21.630;2023-04-19T14:04:02;99750.84;;;18.03;34.23
77939;BME280;67136;47.546;21.630;2023-04-19T14:07:05;99745.69;;;17.95;34.90
77939;BME280;67136;47.546;21.630;2023-04-19T14:10:09;99747.03;;;17.91;34.61
77939;BME280;67136;47.546;21.630;2023-04-19T14:13:11;99750.06;;;17.88;35.22
77939;BME280;67136;47.546;21.630;2023-04-19T14:16:14;99750.37;;;17.79;35.96
77939;BME280;67136;47.546;21.630;2023-04-19T14:19:17;99750.75;;;17.76;37.95
77939;BME280;67136;47.546;21.630;2023-04-19T14:22:19;99749.31;;;17.59;38.94
77939;BME280;67136;47.546;21.630;2023-04-19T14:25:22;99747.19;;;17.54;39.65
77939;BME280;67136;47.546;21.630;2023-04-19T14:28:24;99747.00;;;17.41;42.00
77939;BME280;67136;47.546;21.630;2023-04-19T14:31:27;99746.75;;;17.51;41.05
77939;BME280;67136;47.546;21.630;2023-04-19T14:34:30;99746.47;;;17.60;40.92
77939;BME280;67136;47.546;21.630;2023-04-19T14:37:33;99750.00;;;17.82;40.84
77939;BME280;67136;47.546;21.630;2023-04-19T14:40:36;99753.47;;;17.68;41.04
77939;BME280;67136;47.546;21.630;2023-04-19T14:43:38;99750.91;;;17.89;40.95
77939;BME280;67136;47.546;21.630;2023-04-19T14:46:41;99755.56;;;18.08;40.58
77939;BME280;67136;47.546;21.630;2023-04-19T14:49:44;99757.34;;;18.22;40.55
77939;BME280;67136;47.546;21.630;2023-04-19T14:52:47;99759.09;;;18.15;40.48
77939;BME280;67136;47.546;21.630;2023-04-19T14:55:49;99759.63;;;18.04;40.85
77939;BME280;67136;47.546;21.630;2023-04-19T14:58:52;99758.91;;;17.95;40.82
77939;BME280;67136;47.546;21.630;2023-04-19T15:01:55;99764.59;;;17.78;41.43
77939;BME280;67136;47.546;21.630;2023-04-19T15:04:58;99762.44;;;17.67;41.86
77939;BME280;67136;47.546;21.630;2023-04-19T15:08:01;99768.16;;;17.56;42.07
77939;BME280;67136;47.546;21.630;2023-04-19T15:11:04;99766.16;;;17.43;42.54
77939;BME280;67136;47.546;21.630;2023-04-19T15:14:06;99773.88;;;17.15;43.76
77939;BME280;67136;47.546;21.630;2023-04-19T15:17:09;99777.44;;;16.93;44.58
77939;BME280;67136;47.546;21.630;2023-04-19T15:20:11;99779.13;;;16.86;44.57
77939;BME280;67136;47.546;21.630;2023-04-19T15:23:14;99775.97;;;16.68;45.24
77939;BME280;67136;47.546;21.630;2023-04-19T15:26:17;99768.31;;;16.59;45.26
77939;BME280;67136;47.546;21.630;2023-04-19T15:29:19;99782.41;;;16.43;45.41
77939;BME280;67136;47.546;21.630;2023-04-19T15:32:22;99773.88;;;16.41;45.16
77939;BME280;67136;47.546;21.630;2023-04-19T15:35:24;99784.25;;;16.43;44.88
77939;BME280;67136;47.546;21.630;2023-04-19T15:38:28;99789.34;;;16.44;44.82
77939;BME280;67136;47.546;21.630;2023-04-19T15:41:31;99787.87;;;16.50;44.51
77939;BME280;67136;47.546;21.630;2023-04-19T15:44:34;99785.56;;;16.69;43.93
77939;BME280;67136;47.546;21.630;2023-04-19T15:47:37;99792.69;;;16.83;43.47
77939;BME280;67136;47.546;21.630;2023-04-19T15:50:39;99792.25;;;16.94;42.90
77939;BME280;67136;47.546;21.630;2023-04-19T15:53:45;99790.34;;;16.88;42.59
77939;BME280;67136;47.546;21.630;2023-04-19T15:56:48;99799.16;;;16.95;42.25
77939;BME280;67136;47.546;21.630;2023-04-19T15:59:50;99795.44;;;16.90;41.51
77939;BME280;67136;47.546;21.630;2023-04-19T16:02:53;99791.50;;;16.86;41.37
77939;BME280;67136;47.546;21.630;2023-04-19T16:05:56;99793.19;;;17.01;41.11
77939;BME280;67136;47.546;21.630;2023-04-19T16:08:58;99791.53;;;17.00;40.99
77939;BME280;67136;47.546;21.630;2023-04-19T16:12:01;99790.22;;;16.82;41.22
77939;BME280;67136;47.546;21.630;2023-04-19T16:15:04;99798.59;;;16.85;41.72
77939;BME280;67136;47.546;21.630;2023-04-19T16:18:07;99800.53;;;16.54;42.83
77939;BME280;67136;47.546;21.630;2023-04-19T16:21:10;99805.97;;;16.22;43.56
77939;BME280;67136;47.546;21.630;2023-04-19T16:24:13;99810.66;;;16.12;44.39
77939;BME280;67136;47.546;21.630;2023-04-19T16:27:15;99808.06;;;16.04;44.92
77939;BME280;67136;47.546;21.630;2023-04-19T16:30:18;99810.78;;;15.88;45.43
77939;BME280;67136;47.546;21.630;2023-04-19T16:33:20;99804.56;;;15.73;45.95
77939;BME280;67136;47.546;21.630;2023-04-19T16:36:23;99802.31;;;15.62;47.23
77939;BME280;67136;47.546;21.630;2023-04-19T16:39:26;99811.56;;;15.58;46.92
77939;BME280;67136;47.546;21.630;2023-04-19T16:42:28;99812.25;;;15.52;46.65
77939;BME280;67136;47.546;21.630;2023-04-19T16:45:31;99817.69;;;15.50;46.38
77939;BME280;67136;47.546;21.630;2023-04-19T16:48:34;99806.97;;;15.52;45.99
77939;BME280;67136;47.546;21.630;2023-04-19T16:51:36;99813.59;;;15.40;45.85
77939;BME280;67136;47.546;21.630;2023-04-19T16:54:39;99819.16;;;15.37;45.85
77939;BME280;67136;47.546;21.630;2023-04-19T16:57:42;99817.84;;;15.33;45.79
77939;BME280;67136;47.546;21.630;2023-04-19T17:00:44;99819.34;;;15.27;45.70
77939;BME280;67136;47.546;21.630;2023-04-19T17:03:47;99817.69;;;15.26;45.68
77939;BME280;67136;47.546;21.630;2023-04-19T17:06:50;99822.00;;;15.19;45.81
77939;BME280;67136;47.546;21.630;2023-04-19T17:09:53;99820.88;;;15.14;46.14
77939;BME280;67136;47.546;21.630;2023-04-19T17:12:56;99828.91;;;15.12;46.71
77939;BME280;67136;47.546;21.630;2023-04-19T17:15:59;99822.84;;;15.04;47.21
77939;BME280;67136;47.546;21.630;2023-04-19T17:19:02;99830.09;;;15.02;47.23
77939;BME280;67136;47.546;21.630;2023-04-19T17:22:04;99837.34;;;14.91;47.43
77939;BME280;67136;47.546;21.630;2023-04-19T17:25:07;99833.37;;;14.87;47.57
77939;BME280;67136;47.546;21.630;2023-04-19T17:28:10;99841.28;;;14.71;48.04
77939;BME280;67136;47.546;21.630;2023-04-19T17:31:12;99847.53;;;14.62;47.88
77939;BME280;67136;47.546;21.630;2023-04-19T17:34:15;99852.28;;;14.51;48.14
77939;BME280;67136;47.546;21.630;2023-04-19T17:37:17;99847.47;;;14.38;48.48
77939;BME280;67136;47.546;21.630;2023-04-19T17:40:20;99851.69;;;14.23;49.18
77939;BME280;67136;47.546;21.630;2023-04-19T17:43:23;99847.34;;;14.06;49.94
77939;BME280;67136;47.546;21.630;2023-04-19T17:46:28;99850.25;;;13.87;50.69
77939;BME280;67136;47.546;21.630;2023-04-19T17:49:31;99849.53;;;13.69;50.56
77939;BME280;67136;47.546;21.630;2023-04-19T17:52:33;99858.44;;;13.50;51.79
77939;BME280;67136;47.546;21.630;2023-04-19T17:55:36;99865.41;;;13.34;51.86
77939;BME280;67136;47.546;21.630;2023-04-19T17:58:39;99860.66;;;13.12;52.31
77939;BME280;67136;47.546;21.630;2023-04-19T18:01:41;99865.72;;;12.96;53.03
77939;BME280;67136;47.546;21.630;2023-04-19T18:04:44;99867.56;;;12.78;54.51
77939;BME280;67136;47.546;21.630;2023-04-19T18:07:47;99884.78;;;12.63;54.22
77939;BME280;67136;47.546;21.630;2023-04-19T18:10:50;99885.97;;;12.50;54.83
77939;BME280;67136;47.546;21.630;2023-04-19T18:13:52;99886.09;;;12.31;55.16
77939;BME280;67136;47.546;21.630;2023-04-19T18:16:55;99893.78;;;12.15;55.59
77939;BME280;67136;47.546;21.630;2023-04-19T18:19:57;99893.69;;;12.07;56.42
77939;BME280;67136;47.546;21.630;2023-04-19T18:23:00;99892.09;;;11.97;56.74
77939;BME280;67136;47.546;21.630;2023-04-19T18:26:03;99906.88;;;11.88;58.05
77939;BME280;67136;47.546;21.630;2023-04-19T18:29:06;99909.19;;;11.91;58.81
77939;BME280;67136;47.546;21.630;2023-04-19T18:32:08;99913.09;;;11.87;58.26
77939;BME280;67136;47.546;21.630;2023-04-19T18:35:11;99912.31;;;11.77;58.90
77939;BME280;67136;47.546;21.630;2023-04-19T18:38:13;99920.31;;;11.76;58.69
77939;BME280;67136;47.546;21.630;2023-04-19T18:41:16;99927.63;;;11.72;59.28
77939;BME280;67136;47.546;21.630;2023-04-19T18:44:19;99921.16;;;11.67;60.72
77939;BME280;67136;47.546;21.630;2023-04-19T18:47:41;99929.16;;;11.65;59.87
77939;BME280;67136;47.546;21.630;2023-04-19T18:55:00;99929.28;;;11.45;61.12
77939;BME280;67136;47.546;21.630;2023-04-19T18:58:13;99930.81;;;11.47;61.24
77939;BME280;67136;47.546;21.630;2023-04-19T19:01:21;99927.63;;;11.53;62.59
77939;BME280;67136;47.546;21.630;2023-04-19T19:04:27;99932.16;;;11.51;61.54
77939;BME280;67136;47.546;21.630;2023-04-19T19:07:46;99930.22;;;11.63;61.90
77939;BME280;67136;47.546;21.630;2023-04-19T19:10:53;99940.44;;;11.75;61.58
77939;BME280;67136;47.546;21.630;2023-04-19T19:14:04;99936.53;;;11.89;61.71
77939;BME280;67136;47.546;21.630;2023-04-19T19:17:06;99932.31;;;12.05;61.65
77939;BME280;67136;47.546;21.630;2023-04-19T19:20:12;99927.94;;;12.23;62.44
77939;BME280;67136;47.546;21.630;2023-04-19T19:23:15;99926.78;;;12.35;61.85
77939;BME280;67136;47.546;21.630;2023-04-19T19:26:36;99930.63;;;12.41;61.47
77939;BME280;67136;47.546;21.630;2023-04-19T19:29:42;99933.19;;;12.50;61.38
77939;BME280;67136;47.546;21.630;2023-04-19T19:32:46;99936.88;;;12.58;61.84
77939;BME280;67136;47.546;21.630;2023-04-19T19:35:57;99940.03;;;12.61;61.68
77939;BME280;67136;47.546;21.630;2023-04-19T19:38:59;99950.22;;;12.64;61.82
77939;BME280;67136;47.546;21.630;2023-04-19T19:42:17;99945.81;;;12.65;61.63
77939;BME280;67136;47.546;21.630;2023-04-19T19:45:26;99947.97;;;12.69;62.67
77939;BME280;67136;47.546;21.630;2023-04-19T19:48:32;99954.34;;;12.67;62.44
77939;BME280;67136;47.546;21.630;2023-04-19T19:51:43;99956.28;;;12.65;62.04
77939;BME280;67136;47.546;21.630;2023-04-19T19:55:08;99952.84;;;12.64;62.23
77939;BME280;67136;47.546;21.630;2023-04-19T19:58:16;99956.97;;;12.67;62.52
77939;BME280;67136;47.546;21.630;2023-04-19T20:01:42;99956.53;;;12.71;62.85
77939;BME280;67136;47.546;21.630;2023-04-19T20:04:45;99953.44;;;12.76;62.47
77939;BME280;67136;47.546;21.630;2023-04-19T20:07:49;99954.28;;;12.76;62.89
77939;BME280;67136;47.546;21.630;2023-04-19T20:11:09;99958.16;;;12.72;62.72
77939;BME280;67136;47.546;21.630;2023-04-19T20:14:26;99954.63;;;12.64;63.45
77939;BME280;67136;47.546;21.630;2023-04-19T20:17:33;99953.88;;;12.53;63.88
77939;BME280;67136;47.546;21.630;2023-04-19T20:20:41;99959.41;;;12.50;63.94
77939;BME280;67136;47.546;21.630;2023-04-19T20:23:56;99959.16;;;12.44;64.20
77939;BME280;67136;47.546;21.630;2023-04-19T20:27:01;99959.31;;;12.42;64.18
77939;BME280;67136;47.546;21.630;2023-04-19T20:30:11;99957.00;;;12.39;65.17
77939;BME280;67136;47.546;21.630;2023-04-19T20:33:17;99959.88;;;12.36;64.78
77939;BME280;67136;47.546;21.630;2023-04-19T20:36:20;99956.75;;;12.33;64.65
77939;BME280;67136;47.546;21.630;2023-04-19T20:39:26;99961.03;;;12.34;65.25
77939;BME280;67136;47.546;21.630;2023-04-19T20:42:33;99964.47;;;12.34;64.87
77939;BME280;67136;47.546;21.630;2023-04-19T20:45:35;99961.16;;;12.32;64.66
77939;BME280;67136;47.546;21.630;2023-04-19T20:48:40;99961.69;;;12.36;65.19
77939;BME280;67136;47.546;21.630;2023-04-19T20:51:45;99962.25;;;12.39;64.41
77939;BME280;67136;47.546;21.630;2023-04-19T20:54:56;99963.72;;;12.42;64.33
77939;BME280;67136;47.546;21.630;2023-04-19T20:58:05;99967.56;;;12.47;64.69
77939;BME280;67136;47.546;21.630;2023-04-19T21:01:29;99962.19;;;12.49;64.61
77939;BME280;67136;47.546;21.630;2023-04-19T21:04:36;99968.94;;;12.52;64.93
77939;BME280;67136;47.546;21.630;2023-04-19T21:07:40;99970.50;;;12.44;64.97
77939;BME280;67136;47.546;21.630;2023-04-19T21:10:52;99965.09;;;12.46;64.83
77939;BME280;67136;47.546;21.630;2023-04-19T21:13:57;99972.13;;;12.45;64.62
77939;BME280;67136;47.546;21.630;2023-04-19T21:17:11;99976.69;;;12.43;64.58
77939;BME280;67136;47.546;21.630;2023-04-19T21:20:14;99976.00;;;12.41;64.58
77939;BME280;67136;47.546;21.630;2023-04-19T21:23:19;99981.84;;;12.35;64.75
77939;BME280;67136;47.546;21.630;2023-04-19T21:26:28;99980.91;;;12.27;64.85
77939;BME280;67136;47.546;21.630;2023-04-19T21:30:05;99970.63;;;12.16;64.80
77939;BME280;67136;47.546;21.630;2023-04-19T21:33:09;99989.38;;;12.11;64.91
77939;BME280;67136;47.546;21.630;2023-04-19T21:36:11;99985.87;;;11.93;65.22
77939;BME280;67136;47.546;21.630;2023-04-19T21:39:14;99989.91;;;11.78;65.45
77939;BME280;67136;47.546;21.630;2023-04-19T21:42:20;99993.66;;;11.66;65.69
77939;BME280;67136;47.546;21.630;2023-04-19T21:45:27;99990.88;;;11.58;65.89
77939;BME280;67136;47.546;21.630;2023-04-19T21:48:35;99994.31;;;11.49;66.34
77939;BME280;67136;47.546;21.630;2023-04-19T21:51:37;99994.88;;;11.43;66.58
77939;BME280;67136;47.546;21.630;2023-04-19T21:54:40;99991.19;;;11.26;67.07
77939;BME280;67136;47.546;21.630;2023-04-19T21:57:43;99999.72;;;11.19;67.52
77939;BME280;67136;47.546;21.630;2023-04-19T22:00:46;100000.69;;;11.08;67.58
77939;BME280;67136;47.546;21.630;2023-04-19T22:03:49;100002.47;;;10.98;67.85
77939;BME280;67136;47.546;21.630;2023-04-19T22:06:52;100001.06;;;10.85;68.57
77939;BME280;67136;47.546;21.630;2023-04-19T22:09:56;100000.78;;;10.78;69.18
77939;BME280;67136;47.546;21.630;2023-04-19T22:13:02;99999.81;;;10.79;70.64
77939;BME280;67136;47.546;21.630;2023-04-19T22:16:06;100003.13;;;10.72;71.21
77939;BME280;67136;47.546;21.630;2023-04-19T22:19:21;100005.72;;;10.72;70.97
77939;BME280;67136;47.546;21.630;2023-04-19T22:22:34;100006.37;;;10.64;72.21
77939;BME280;67136;47.546;21.630;2023-04-19T22:25:41;100003.47;;;10.58;72.35
77939;BME280;67136;47.546;21.630;2023-04-19T22:28:53;100011.41;;;10.47;72.86
77939;BME280;67136;47.546;21.630;2023-04-19T22:31:56;100013.59;;;10.42;73.43
77939;BME280;67136;47.546;21.630;2023-04-19T22:35:02;100011.53;;;10.36;74.13
77939;BME280;67136;47.546;21.630;2023-04-19T22:38:05;100008.38;;;10.42;73.98
77939;BME280;67136;47.546;21.630;2023-04-19T22:41:08;100010.56;;;10.37;73.41
77939;BME280;67136;47.546;21.630;2023-04-19T22:44:13;100010.56;;;10.37;74.17
77939;BME280;67136;47.546;21.630;2023-04-19T22:47:16;100010.53;;;10.27;74.28
77939;BME280;67136;47.546;21.630;2023-04-19T22:50:34;100010.22;;;10.21;75.24
77939;BME280;67136;47.546;21.630;2023-04-19T22:53:40;100008.00;;;10.16;75.56
77939;BME280;67136;47.546;21.630;2023-04-19T22:56:43;100002.34;;;10.11;75.48
77939;BME280;67136;47.546;21.630;2023-04-19T22:59:49;100006.19;;;10.17;75.34
77939;BME280;67136;47.546;21.630;2023-04-19T23:02:55;100004.13;;;10.11;75.69
77939;BME280;67136;47.546;21.630;2023-04-19T23:06:07;100009.59;;;10.07;75.58
77939;BME280;67136;47.546;21.630;2023-04-19T23:09:12;100000.75;;;9.99;76.00
77939;BME280;67136;47.546;21.630;2023-04-19T23:12:20;100016.37;;;9.89;76.36
77939;BME280;67136;47.546;21.630;2023-04-19T23:15:27;100008.59;;;9.78;76.82
77939;BME280;67136;47.546;21.630;2023-04-19T23:18:31;100016.25;;;9.70;76.91
77939;BME280;67136;47.546;21.630;2023-04-19T23:21:34;100013.56;;;9.61;77.10
77939;BME280;67136;47.546;21.630;2023-04-19T23:24:40;100017.19;;;9.49;78.38
77939;BME280;67136;47.546;21.630;2023-04-19T23:27:46;100007.19;;;9.33;78.12
77939;BME280;67136;47.546;21.630;2023-04-19T23:30:55;100009.06;;;9.31;78.92
77939;BME280;67136;47.546;21.630;2023-04-19T23:33:57;100009.22;;;9.30;79.45
77939;BME280;67136;47.546;21.630;2023-04-19T23:37:12;100001.75;;;9.25;80.63
77939;BME280;67136;47.546;21.630;2023-04-19T23:40:19;99998.56;;;9.22;80.58
77939;BME280;67136;47.546;21.630;2023-04-19T23:43:22;100000.97;;;9.14;80.64
77939;BME280;67136;47.546;21.630;2023-04-19T23:46:34;99998.97;;;9.06;80.17
77939;BME280;67136;47.546;21.630;2023-04-19T23:49:46;99996.16;;;8.98;81.18
77939;BME280;67136;47.546;21.630;2023-04-19T23:52:51;99997.09;;;8.97;81.32
77939;BME280;67136;47.546;21.630;2023-04-19T23:55:57;99996.44;;;8.84;81.48
77939;BME280;67136;47.546;21.630;2023-04-19T23:59:01;99992.66;;;8.77;81.33
